createdAt,value
2022-09-09T00:01:26.644Z,100.00
2022-09-09T00:04:31.069Z,100.00
2022-09-09T00:07:19.256Z,100.00
2022-09-09T00:09:51.759Z,100.00
2022-09-09T00:12:43.782Z,100.00
2022-09-09T00:15:21.691Z,100.00
2022-09-09T00:18:22.189Z,100.00
2022-09-09T00:21:07.045Z,100.00
2022-09-09T00:23:40.179Z,100.00
2022-09-09T00:26:31.999Z,100.00
2022-09-09T00:29:32.312Z,100.00
2022-09-09T00:32:11.200Z,100.00
2022-09-09T00:34:47.240Z,100.00
2022-09-09T00:37:16.710Z,100.00
2022-09-09T00:39:50.564Z,100.00
2022-09-09T00:42:59.316Z,100.00
2022-09-09T00:45:48.080Z,100.00
2022-09-09T00:48:14.974Z,100.00
2022-09-09T00:50:53.300Z,100.00
2022-09-09T00:54:00.367Z,100.00
2022-09-09T00:57:27.972Z,100.00
2022-09-09T01:00:25.107Z,100.00
2022-09-09T01:03:26.022Z,100.00
2022-09-09T01:06:13.421Z,100.00
2022-09-09T01:08:53.602Z,100.00
2022-09-09T01:11:36.015Z,99.61
2022-09-09T01:14:36.265Z,99.28
2022-09-09T01:17:20.885Z,99.56
2022-09-09T01:19:59.481Z,99.39
2022-09-09T01:22:46.214Z,100.00
2022-09-09T01:26:10.188Z,100.00
2022-09-09T01:28:38.571Z,100.00
2022-09-09T01:31:08.044Z,100.00
2022-09-09T01:33:37.594Z,100.00
2022-09-09T01:36:14.910Z,100.00
2022-09-09T01:38:44.580Z,100.00
2022-09-09T01:41:18.740Z,100.00
2022-09-09T01:43:45.826Z,100.00
2022-09-09T01:46:17.054Z,100.00
2022-09-09T01:48:44.492Z,100.00
2022-09-09T01:51:11.686Z,100.00
2022-09-09T01:53:42.875Z,100.00
2022-09-09T01:56:26.231Z,100.00
2022-09-09T01:59:17.774Z,100.00
2022-09-09T02:02:40.593Z,100.00
2022-09-09T02:05:39.478Z,100.00
2022-09-09T02:08:10.313Z,100.00
2022-09-09T02:10:54.947Z,100.00
2022-09-09T02:13:23.450Z,100.00
2022-09-09T02:16:09.217Z,100.00
2022-09-09T02:19:13.755Z,100.00
2022-09-09T02:21:43.557Z,100.00
2022-09-09T02:24:15.423Z,100.00
2022-09-09T02:26:48.726Z,100.00
2022-09-09T02:29:29.386Z,100.00
2022-09-09T02:32:07.463Z,100.00
2022-09-09T02:34:43.344Z,100.00
2022-09-09T02:37:12.007Z,100.00
2022-09-09T02:39:38.951Z,100.00
2022-09-09T02:42:06.650Z,100.00
2022-09-09T02:44:37.273Z,100.00
2022-09-09T02:47:29.551Z,100.00
2022-09-09T02:50:10.489Z,100.00
2022-09-09T02:53:25.763Z,100.00
2022-09-09T02:56:17.300Z,100.00
2022-09-09T02:58:47.307Z,100.00
2022-09-09T03:01:17.536Z,100.00
2022-09-09T03:03:45.216Z,100.00
2022-09-09T03:06:12.877Z,100.00
2022-09-09T03:08:49.286Z,100.00
2022-09-09T03:11:17.850Z,100.00
2022-09-09T03:13:50.282Z,100.00
2022-09-09T03:16:17.272Z,100.00
2022-09-09T03:18:46.963Z,99.78
2022-09-09T03:21:18.697Z,100.00
2022-09-09T03:23:48.106Z,99.69
2022-09-09T03:26:16.164Z,100.00
2022-09-09T03:28:44.250Z,99.41
2022-09-09T03:31:11.504Z,97.66
2022-09-09T03:33:42.091Z,98.83
2022-09-09T03:36:12.079Z,99.49
2022-09-09T03:38:39.020Z,98.13
2022-09-09T03:41:10.548Z,98.62
2022-09-09T03:43:38.676Z,99.11
2022-09-09T03:46:05.997Z,97.85
2022-09-09T03:48:32.975Z,97.83
2022-09-09T03:51:05.522Z,97.60
2022-09-09T03:53:32.927Z,98.92
2022-09-09T03:56:00.907Z,99.12
2022-09-09T03:58:29.222Z,100.00
2022-09-09T04:01:01.973Z,100.00
2022-09-09T04:03:32.555Z,99.09
2022-09-09T04:06:03.033Z,99.87
2022-09-09T04:08:32.931Z,100.00
2022-09-09T04:11:06.351Z,100.00
2022-09-09T04:13:41.302Z,100.00
2022-09-09T04:16:11.885Z,100.00
2022-09-09T04:18:38.772Z,100.00
2022-09-09T04:21:07.656Z,98.54
2022-09-09T04:23:37.269Z,98.39
2022-09-09T04:26:05.139Z,98.98
2022-09-09T04:28:38.231Z,98.42
2022-09-09T04:31:24.444Z,99.06
2022-09-09T04:33:52.294Z,98.36
2022-09-09T04:36:20.381Z,99.13
2022-09-09T04:38:49.817Z,97.36
2022-09-09T04:41:19.275Z,96.95
2022-09-09T04:43:46.342Z,97.66
2022-09-09T04:46:13.351Z,96.59
2022-09-09T04:48:41.067Z,97.26
2022-09-09T04:51:14.244Z,96.28
2022-09-09T04:53:43.565Z,96.40
2022-09-09T04:56:16.516Z,96.74
2022-09-09T04:58:46.721Z,95.29
2022-09-09T05:01:18.837Z,95.35
2022-09-09T05:03:47.230Z,94.47
2022-09-09T05:06:20.707Z,95.38
2022-09-09T05:08:47.548Z,96.16
2022-09-09T05:11:28.494Z,96.48
2022-09-09T05:13:58.429Z,96.15
2022-09-09T05:16:28.157Z,96.87
2022-09-09T05:18:55.077Z,98.46
2022-09-09T05:21:27.314Z,98.85
2022-09-09T05:23:54.199Z,98.32
2022-09-09T05:26:23.299Z,98.67
2022-09-09T05:28:50.596Z,98.08
2022-09-09T05:31:28.739Z,98.57
2022-09-09T05:33:58.167Z,97.75
2022-09-09T05:36:25.073Z,97.38
2022-09-09T05:38:52.047Z,96.25
2022-09-09T05:41:19.482Z,95.80
2022-09-09T05:43:47.946Z,94.97
2022-09-09T05:46:21.823Z,94.32
2022-09-09T05:48:53.380Z,93.91
2022-09-09T05:51:29.129Z,94.03
2022-09-09T05:54:01.576Z,94.23
2022-09-09T05:56:33.978Z,94.02
2022-09-09T05:59:03.267Z,93.37
2022-09-09T06:01:34.202Z,93.06
2022-09-09T06:04:01.545Z,93.76
2022-09-09T06:06:37.862Z,94.76
2022-09-09T06:09:10.401Z,95.37
2022-09-09T06:11:43.129Z,95.30
2022-09-09T06:14:10.486Z,95.28
2022-09-09T06:16:38.808Z,94.69
2022-09-09T06:19:06.045Z,94.57
2022-09-09T06:21:39.765Z,94.67
2022-09-09T06:24:13.390Z,93.59
2022-09-09T06:26:42.021Z,93.62
2022-09-09T06:29:10.143Z,93.65
2022-09-09T06:31:38.120Z,92.78
2022-09-09T06:34:09.577Z,92.80
2022-09-09T06:36:39.489Z,91.90
2022-09-09T06:39:12.133Z,91.63
2022-09-09T06:41:43.911Z,92.63
2022-09-09T06:44:13.343Z,92.13
2022-09-09T06:46:40.809Z,93.35
2022-09-09T06:49:10.802Z,93.82
2022-09-09T06:51:44.646Z,92.81
2022-09-09T06:54:12.829Z,91.12
2022-09-09T06:56:44.250Z,91.04
2022-09-09T06:59:15.864Z,90.42
2022-09-09T07:01:55.777Z,89.45
2022-09-09T07:04:23.085Z,89.73
2022-09-09T07:06:49.977Z,87.85
2022-09-09T07:09:17.385Z,88.12
2022-09-09T07:11:51.685Z,87.97
2022-09-09T07:14:21.740Z,86.18
2022-09-09T07:16:51.641Z,86.21
2022-09-09T07:19:18.539Z,84.51
2022-09-09T07:21:45.710Z,85.43
2022-09-09T07:24:18.224Z,86.49
2022-09-09T07:26:47.714Z,85.93
2022-09-09T07:29:19.863Z,82.13
2022-09-09T07:31:47.761Z,80.20
2022-09-09T07:34:14.629Z,79.95
2022-09-09T07:36:43.118Z,81.44
2022-09-09T07:39:15.260Z,80.93
2022-09-09T07:41:50.197Z,80.79
2022-09-09T07:44:22.403Z,80.93
2022-09-09T07:46:52.460Z,80.66
2022-09-09T07:49:24.434Z,79.97
2022-09-09T07:51:54.533Z,76.11
2022-09-09T07:54:24.441Z,73.59
2022-09-09T07:56:52.927Z,74.53
2022-09-09T07:59:19.816Z,74.88
2022-09-09T08:01:55.786Z,75.79
2022-09-09T08:04:26.044Z,76.03
2022-09-09T08:07:04.376Z,76.28
2022-09-09T08:09:35.738Z,76.69
2022-09-09T08:12:09.911Z,77.04
2022-09-09T08:14:36.799Z,76.96
2022-09-09T08:17:06.194Z,77.87
2022-09-09T08:19:38.112Z,78.98
2022-09-09T08:22:08.651Z,77.77
2022-09-09T08:24:37.667Z,77.76
2022-09-09T08:27:07.719Z,76.43
2022-09-09T08:29:38.808Z,74.68
2022-09-09T08:32:05.746Z,74.98
2022-09-09T08:34:33.230Z,77.31
2022-09-09T08:37:04.765Z,76.08
2022-09-09T08:39:34.918Z,74.15
2022-09-09T08:42:26.785Z,75.07
2022-09-09T08:45:20.914Z,74.98
2022-09-09T08:48:13.226Z,72.64
2022-09-09T08:50:41.798Z,71.58
2022-09-09T08:53:31.216Z,70.00
2022-09-09T08:56:02.745Z,70.60
2022-09-09T08:58:37.652Z,74.41
2022-09-09T09:01:12.715Z,74.83
2022-09-09T09:03:56.207Z,75.35
2022-09-09T09:06:31.888Z,66.22
2022-09-09T09:09:20.214Z,54.67
2022-09-09T09:12:07.287Z,49.57
2022-09-09T09:14:38.495Z,46.89
2022-09-09T09:17:13.846Z,47.90
2022-09-09T09:19:42.860Z,50.72
2022-09-09T09:22:46.784Z,52.58
2022-09-09T09:25:19.748Z,54.21
2022-09-09T09:28:11.866Z,55.76
2022-09-09T09:31:13.722Z,60.92
2022-09-09T09:33:56.179Z,60.80
2022-09-09T09:36:38.928Z,60.82
2022-09-09T09:41:58.765Z,65.04
2022-09-09T09:44:38.186Z,66.56
2022-09-09T09:47:22.416Z,67.88
2022-09-09T09:49:59.520Z,66.61
2022-09-09T09:52:30.289Z,63.84
2022-09-09T09:55:06.712Z,62.95
2022-09-09T09:57:37.326Z,61.06
2022-09-09T10:00:15.901Z,58.23
2022-09-09T10:02:45.043Z,56.55
2022-09-09T10:05:27.219Z,56.61
2022-09-09T10:08:13.690Z,53.65
2022-09-09T10:10:41.574Z,52.77
2022-09-09T10:13:24.807Z,55.05
2022-09-09T10:16:45.274Z,58.12
2022-09-09T10:19:17.838Z,59.70
2022-09-09T10:21:47.319Z,60.11
2022-09-09T10:24:41.139Z,57.99
2022-09-09T10:27:44.322Z,56.04
2022-09-09T10:30:31.192Z,51.86
2022-09-09T10:33:03.782Z,47.85
2022-09-09T10:35:52.242Z,44.67
2022-09-09T10:38:33.006Z,42.53
2022-09-09T10:41:36.332Z,38.22
2022-09-09T10:44:30.368Z,37.24
2022-09-09T10:47:12.548Z,36.71
2022-09-09T10:50:10.153Z,36.48
2022-09-09T10:52:55.248Z,39.94
2022-09-09T10:55:36.902Z,39.75
2022-09-09T10:58:10.416Z,34.45
2022-09-09T11:00:46.685Z,33.21
2022-09-09T11:03:23.455Z,34.50
2022-09-09T11:05:58.106Z,31.86
2022-09-09T11:08:31.663Z,33.71
2022-09-09T11:11:28.800Z,39.71
2022-09-09T11:14:20.137Z,41.51
2022-09-09T11:16:57.689Z,45.22
2022-09-09T11:19:44.607Z,46.76
2022-09-09T11:22:41.770Z,47.85
2022-09-09T11:25:30.946Z,51.09
2022-09-09T11:28:53.085Z,51.66
2022-09-09T11:31:53.622Z,53.01
2022-09-09T11:34:43.735Z,53.83
2022-09-09T11:37:51.080Z,54.40
2022-09-09T11:40:20.584Z,53.59
2022-09-09T11:42:50.838Z,53.15
2022-09-09T11:45:25.111Z,54.22
2022-09-09T11:48:00.244Z,54.76
2022-09-09T11:50:26.925Z,58.33
2022-09-09T11:53:21.935Z,68.77
2022-09-09T11:56:00.519Z,77.25
2022-09-09T11:58:33.344Z,78.86
2022-09-09T12:01:00.626Z,79.73
2022-09-09T12:03:43.679Z,83.68
2022-09-09T12:06:21.151Z,83.07
2022-09-09T12:08:58.277Z,78.28
2022-09-09T12:11:28.024Z,79.08
2022-09-09T12:14:03.461Z,75.98
2022-09-09T12:16:42.235Z,75.27
2022-09-09T12:19:23.368Z,75.69
2022-09-09T12:22:31.848Z,73.86
2022-09-09T12:25:23.533Z,76.20
2022-09-09T12:28:38.316Z,71.00
2022-09-09T12:31:38.705Z,66.48
2022-09-09T12:34:22.109Z,67.68
2022-09-09T12:36:59.047Z,65.42
2022-09-09T12:39:46.644Z,65.67
2022-09-09T12:42:22.192Z,65.14
2022-09-09T12:45:26.164Z,66.10
2022-09-09T12:48:01.763Z,65.97
2022-09-09T12:50:40.202Z,66.54
2022-09-09T12:53:33.079Z,65.00
2022-09-09T12:56:09.032Z,56.02
2022-09-09T12:58:40.855Z,44.07
2022-09-09T13:01:22.164Z,38.96
2022-09-09T13:03:49.182Z,35.77
2022-09-09T13:06:35.706Z,34.07
2022-09-09T13:09:04.064Z,32.41
2022-09-09T13:11:50.742Z,30.47
2022-09-09T13:14:26.817Z,29.55
2022-09-09T13:17:02.616Z,31.50
2022-09-09T13:19:37.895Z,32.46
2022-09-09T13:22:38.762Z,37.09
2022-09-09T13:25:13.653Z,41.43
2022-09-09T13:27:51.817Z,44.88
2022-09-09T13:30:23.962Z,47.60
2022-09-09T13:33:08.125Z,49.34
2022-09-09T13:35:37.424Z,53.47
2022-09-09T13:38:10.783Z,54.80
2022-09-09T13:40:39.255Z,56.48
2022-09-09T13:43:20.162Z,59.14
2022-09-09T13:46:02.539Z,60.95
2022-09-09T13:48:32.818Z,62.31
2022-09-09T13:51:43.272Z,63.96
2022-09-09T13:54:12.091Z,64.85
2022-09-09T13:56:41.503Z,64.94
2022-09-09T13:59:17.613Z,66.75
2022-09-09T14:01:45.303Z,67.71
2022-09-09T14:04:12.852Z,69.00
2022-09-09T14:06:40.700Z,71.35
2022-09-09T14:09:11.921Z,71.44
2022-09-09T14:11:41.769Z,69.99
2022-09-09T14:14:08.995Z,70.59
2022-09-09T14:16:36.033Z,71.59
2022-09-09T14:19:05.428Z,72.50
2022-09-09T14:21:33.055Z,69.22
2022-09-09T14:23:59.883Z,68.61
2022-09-09T14:26:30.898Z,68.77
2022-09-09T14:28:58.274Z,68.18
2022-09-09T14:31:28.150Z,65.56
2022-09-09T14:33:55.014Z,65.20
2022-09-09T14:36:22.302Z,67.70
2022-09-09T14:38:49.174Z,66.36
2022-09-09T14:41:21.078Z,66.31
2022-09-09T14:43:48.006Z,65.59
2022-09-09T14:46:20.019Z,66.95
2022-09-09T14:48:49.447Z,65.94
2022-09-09T14:51:25.376Z,66.95
2022-09-09T14:53:54.348Z,68.44
2022-09-09T14:56:25.453Z,67.99
2022-09-09T14:58:56.291Z,69.08
2022-09-09T15:01:24.846Z,68.14
2022-09-09T15:04:05.112Z,68.80
2022-09-09T15:06:37.441Z,69.32
2022-09-09T15:09:06.923Z,69.55
2022-09-09T15:11:39.166Z,70.39
2022-09-09T15:14:13.213Z,71.66
2022-09-09T15:16:41.100Z,71.75
2022-09-09T15:19:08.251Z,71.30
2022-09-09T15:21:40.696Z,72.80
2022-09-09T15:24:13.984Z,72.87
2022-09-09T15:26:40.798Z,73.10
2022-09-09T15:29:09.198Z,72.79
2022-09-09T15:31:37.151Z,74.20
2022-09-09T15:34:07.043Z,73.90
2022-09-09T15:36:43.917Z,72.90
2022-09-09T15:39:14.004Z,73.54
2022-09-09T15:41:41.394Z,72.79
2022-09-09T15:44:13.878Z,73.90
2022-09-09T15:46:44.452Z,72.24
2022-09-09T15:49:26.890Z,73.09
2022-09-09T15:51:56.837Z,73.19
2022-09-09T15:54:27.472Z,74.08
2022-09-09T15:57:01.691Z,74.51
2022-09-09T15:59:30.924Z,72.62
2022-09-09T16:01:58.908Z,73.03
2022-09-09T16:04:26.026Z,74.11
2022-09-09T16:07:02.347Z,73.30
2022-09-09T16:09:29.999Z,74.95
2022-09-09T16:11:59.964Z,74.49
2022-09-09T16:14:27.235Z,75.15
2022-09-09T16:16:54.620Z,74.81
2022-09-09T16:19:21.694Z,74.22
2022-09-09T16:21:50.497Z,74.36
2022-09-09T16:24:21.102Z,74.02
2022-09-09T16:26:55.192Z,74.12
2022-09-09T16:29:23.276Z,74.38
2022-09-09T16:31:51.325Z,75.15
2022-09-09T16:34:23.925Z,76.30
2022-09-09T16:36:53.219Z,76.26
2022-09-09T16:39:21.496Z,76.31
2022-09-09T16:41:49.784Z,77.46
2022-09-09T16:44:19.731Z,76.83
2022-09-09T16:46:49.781Z,77.99
2022-09-09T16:49:19.275Z,77.66
2022-09-09T16:51:49.952Z,77.83
2022-09-09T16:54:18.268Z,77.23
2022-09-09T16:56:51.093Z,77.40
2022-09-09T16:59:23.558Z,76.87
2022-09-09T17:01:56.216Z,76.64
2022-09-09T17:04:28.745Z,77.34
2022-09-09T17:06:58.132Z,77.26
2022-09-09T17:09:30.079Z,77.11
2022-09-09T17:11:58.316Z,78.86
2022-09-09T17:14:25.129Z,79.34
2022-09-09T17:16:54.449Z,79.77
2022-09-09T17:19:21.245Z,81.79
2022-09-09T17:22:22.099Z,83.27
2022-09-09T17:24:41.416Z,83.29
2022-09-09T17:27:10.609Z,83.99
2022-09-09T17:29:42.103Z,84.01
2022-09-09T17:32:08.927Z,83.29
2022-09-09T17:34:36.739Z,83.22
2022-09-09T17:37:07.253Z,83.95
2022-09-09T17:39:34.698Z,85.94
2022-09-09T17:42:01.583Z,85.86
2022-09-09T17:44:29.915Z,85.98
2022-09-09T17:47:00.287Z,86.21
2022-09-09T17:49:30.160Z,86.90
2022-09-09T17:51:57.521Z,86.45
2022-09-09T17:54:27.390Z,85.80
2022-09-09T17:56:54.234Z,86.46
2022-09-09T17:59:25.180Z,86.28
2022-09-09T18:01:52.871Z,86.55
2022-09-09T18:04:20.386Z,86.68
2022-09-09T18:06:54.116Z,86.63
2022-09-09T18:09:28.453Z,86.23
2022-09-09T18:12:07.654Z,87.61
2022-09-09T18:14:35.440Z,87.28
2022-09-09T18:17:11.268Z,88.95
2022-09-09T18:19:38.176Z,87.92
2022-09-09T18:22:06.797Z,89.13
2022-09-09T18:24:34.278Z,88.50
2022-09-09T18:27:01.232Z,88.36
2022-09-09T18:29:28.343Z,87.50
2022-09-09T18:31:56.284Z,86.58
2022-09-09T18:34:30.214Z,86.72
2022-09-09T18:36:57.603Z,86.06
2022-09-09T18:39:28.343Z,87.08
2022-09-09T18:42:00.366Z,86.39
2022-09-09T18:44:31.010Z,86.92
2022-09-09T18:47:00.921Z,85.92
2022-09-09T18:49:30.439Z,86.88
2022-09-09T18:51:57.815Z,86.33
2022-09-09T18:54:33.269Z,86.99
2022-09-09T18:57:00.932Z,86.65
2022-09-09T18:59:32.735Z,86.60
2022-09-09T19:01:59.772Z,87.00
2022-09-09T19:04:27.344Z,88.30
2022-09-09T19:06:59.265Z,87.52
2022-09-09T19:09:31.730Z,86.72
2022-09-09T19:12:00.459Z,86.97
2022-09-09T19:14:30.603Z,86.75
2022-09-09T19:16:58.099Z,87.94
2022-09-09T19:19:32.034Z,87.33
2022-09-09T19:22:02.965Z,87.10
2022-09-09T19:24:33.020Z,87.52
2022-09-09T19:27:03.033Z,87.67
2022-09-09T19:29:34.387Z,87.85
2022-09-09T19:32:42.708Z,88.34
2022-09-09T19:34:50.721Z,87.37
2022-09-09T19:37:20.344Z,89.01
2022-09-09T19:39:52.858Z,89.08
2022-09-09T19:42:20.033Z,88.50
2022-09-09T19:44:46.984Z,88.40
2022-09-09T19:47:17.700Z,88.40
2022-09-09T19:49:47.523Z,87.90
2022-09-09T19:52:15.918Z,87.10
2022-09-09T19:54:45.067Z,87.56
2022-09-09T19:57:12.158Z,87.85
2022-09-09T19:59:39.084Z,86.53
2022-09-09T20:02:06.012Z,86.46
2022-09-09T20:04:34.059Z,86.29
2022-09-09T20:07:00.877Z,85.98
2022-09-09T20:09:28.998Z,86.84
2022-09-09T20:11:55.816Z,87.58
2022-09-09T20:14:22.681Z,85.85
2022-09-09T20:16:49.546Z,86.32
2022-09-09T20:19:16.629Z,87.04
2022-09-09T20:21:49.461Z,86.02
2022-09-09T20:24:20.616Z,86.75
2022-09-09T20:26:48.792Z,86.00
2022-09-09T20:29:19.171Z,86.35
2022-09-09T20:31:49.105Z,85.66
2022-09-09T20:34:22.244Z,85.44
2022-09-09T20:36:50.861Z,85.62
2022-09-09T20:39:23.470Z,85.28
2022-09-09T20:41:52.641Z,86.86
2022-09-09T20:44:25.225Z,89.12
2022-09-09T20:47:00.367Z,88.78
2022-09-09T20:49:28.057Z,89.02
2022-09-09T20:51:57.136Z,89.44
2022-09-09T20:54:28.070Z,89.67
2022-09-09T20:56:57.499Z,91.37
2022-09-09T20:59:27.827Z,90.93
2022-09-09T21:01:56.809Z,92.89
2022-09-09T21:04:29.197Z,94.08
2022-09-09T21:06:58.215Z,93.71
2022-09-09T21:09:25.018Z,93.98
2022-09-09T21:11:54.578Z,95.24
2022-09-09T21:14:22.111Z,95.28
2022-09-09T21:16:54.391Z,95.76
2022-09-09T21:19:21.213Z,94.53
2022-09-09T21:21:55.472Z,93.84
2022-09-09T21:24:22.734Z,93.04
2022-09-09T21:26:49.610Z,93.01
2022-09-09T21:29:19.459Z,95.43
2022-09-09T21:31:46.405Z,95.75
2022-09-09T21:34:15.395Z,95.30
2022-09-09T21:36:42.313Z,94.70
2022-09-09T21:39:09.284Z,95.13
2022-09-09T21:41:36.929Z,94.93
2022-09-09T21:44:04.202Z,94.01
2022-09-09T21:46:33.509Z,93.94
2022-09-09T21:49:04.118Z,94.75
2022-09-09T21:51:30.985Z,92.89
2022-09-09T21:53:57.988Z,92.06
2022-09-09T21:56:26.642Z,90.65
2022-09-09T21:58:58.876Z,91.28
2022-09-09T22:01:26.438Z,92.31
2022-09-09T22:03:53.692Z,92.32
2022-09-09T22:06:22.803Z,90.21
2022-09-09T22:08:49.993Z,91.56
2022-09-09T22:11:22.201Z,92.12
2022-09-09T22:13:49.547Z,93.12
2022-09-09T22:16:19.957Z,93.68
2022-09-09T22:18:57.152Z,93.12
2022-09-09T22:21:26.235Z,94.85
2022-09-09T22:23:56.698Z,96.27
2022-09-09T22:26:28.035Z,95.30
2022-09-09T22:28:57.167Z,93.85
2022-09-09T22:31:26.182Z,93.48
2022-09-09T22:33:53.751Z,93.47
2022-09-09T22:36:21.256Z,93.78
2022-09-09T22:38:50.763Z,92.00
2022-09-09T22:41:21.199Z,91.74
2022-09-09T22:43:50.898Z,91.93
2022-09-09T22:46:18.843Z,92.07
2022-09-09T22:48:51.353Z,92.71
2022-09-09T22:51:18.400Z,93.17
2022-09-09T22:53:46.108Z,92.94
2022-09-09T22:56:17.370Z,92.56
2022-09-09T22:58:46.176Z,93.39
2022-09-09T23:01:17.228Z,92.54
2022-09-09T23:03:48.108Z,92.17
2022-09-09T23:06:22.903Z,91.71
2022-09-09T23:08:56.236Z,92.54
2022-09-09T23:11:28.005Z,92.37
2022-09-09T23:13:59.707Z,93.37
2022-09-09T23:16:43.516Z,93.83
2022-09-09T23:19:15.929Z,94.30
2022-09-09T23:21:46.057Z,93.13
2022-09-09T23:24:17.895Z,93.46
2022-09-09T23:26:47.522Z,93.64
2022-09-09T23:29:14.993Z,94.14
2022-09-09T23:31:44.921Z,93.56
2022-09-09T23:34:14.691Z,95.27
2022-09-09T23:36:44.498Z,95.35
2022-09-09T23:39:13.241Z,96.47
2022-09-09T23:41:40.332Z,95.66
2022-09-09T23:44:13.555Z,96.28
2022-09-09T23:46:40.470Z,97.67
2022-09-09T23:49:10.296Z,97.37
2022-09-09T23:51:41.067Z,96.83
2022-09-09T23:54:12.977Z,95.71
2022-09-09T23:56:42.365Z,96.14
2022-09-09T23:59:12.153Z,96.86
